createdAt,value
2023-05-07T00:01:57.984Z,6.30
2023-05-07T00:04:59.498Z,4.20
2023-05-07T00:08:00.909Z,4.03
2023-05-07T00:11:02.188Z,4.57
2023-05-07T00:14:03.478Z,4.53
2023-05-07T00:17:04.796Z,5.70
2023-05-07T00:20:06.572Z,4.35
2023-05-07T00:23:07.890Z,4.18
2023-05-07T00:26:09.140Z,4.68
2023-05-07T00:29:10.735Z,6.93
2023-05-07T00:32:12.115Z,5.18
2023-05-07T00:35:13.745Z,4.65
2023-05-07T00:38:15.148Z,5.40
2023-05-07T00:41:16.488Z,4.53
2023-05-07T00:44:19.229Z,6.28
2023-05-07T00:47:21.016Z,6.32
2023-05-07T00:50:23.138Z,4.93
2023-05-07T00:53:24.443Z,4.22
2023-05-07T00:56:25.822Z,4.55
2023-05-07T00:59:27.140Z,5.18
2023-05-07T01:02:28.660Z,4.22
2023-05-07T01:05:31.440Z,7.13
2023-05-07T01:08:33.540Z,5.35
2023-05-07T01:11:34.896Z,4.18
2023-05-07T01:14:36.229Z,4.50
2023-05-07T01:17:38.757Z,4.93
2023-05-07T01:20:40.093Z,5.47
2023-05-07T01:23:42.237Z,4.85
2023-05-07T01:26:44.632Z,4.85
2023-05-07T01:29:45.887Z,5.13
2023-05-07T01:32:47.289Z,4.28
2023-05-07T01:35:51.130Z,6.18
2023-05-07T01:38:52.923Z,5.70
2023-05-07T01:41:57.608Z,4.93
2023-05-07T01:44:58.928Z,5.22
2023-05-07T01:48:01.848Z,4.68
2023-05-07T01:51:03.253Z,4.80
2023-05-07T01:54:04.684Z,5.03
2023-05-07T01:57:06.031Z,4.55
2023-05-07T02:00:07.703Z,4.72
2023-05-07T02:03:09.375Z,4.75
2023-05-07T02:06:10.855Z,5.07
2023-05-07T02:09:12.356Z,4.90
2023-05-07T02:12:13.696Z,6.00
2023-05-07T02:15:15.015Z,4.88
2023-05-07T02:18:16.920Z,4.97
2023-05-07T02:21:18.361Z,5.15
2023-05-07T02:24:19.713Z,4.22
2023-05-07T02:27:21.008Z,7.35
2023-05-07T02:30:22.723Z,4.57
2023-05-07T02:33:23.962Z,7.07
2023-05-07T02:36:25.275Z,5.75
2023-05-07T02:39:26.670Z,5.80
2023-05-07T02:42:27.907Z,4.40
2023-05-07T02:45:29.323Z,4.05
2023-05-07T02:48:30.815Z,4.03
2023-05-07T02:51:32.451Z,5.55
2023-05-07T02:54:33.699Z,4.40
2023-05-07T02:57:35.448Z,4.43
2023-05-07T03:00:36.833Z,5.68
2023-05-07T03:03:38.213Z,5.75
2023-05-07T03:06:39.504Z,4.40
2023-05-07T03:09:40.867Z,4.60
2023-05-07T03:12:42.236Z,6.18
2023-05-07T03:15:43.671Z,5.65
2023-05-07T03:18:45.009Z,4.97
2023-05-07T03:21:46.550Z,6.28
2023-05-07T03:24:47.804Z,4.97
2023-05-07T03:27:49.097Z,5.28
2023-05-07T03:30:50.487Z,5.70
2023-05-07T03:33:52.985Z,4.60
2023-05-07T03:36:54.275Z,7.47
2023-05-07T03:39:55.648Z,7.10
2023-05-07T03:42:56.952Z,7.78
2023-05-07T03:45:58.327Z,7.28
2023-05-07T03:48:59.679Z,6.78
2023-05-07T03:52:01.077Z,5.82
2023-05-07T03:55:02.358Z,5.47
2023-05-07T03:58:03.628Z,6.35
2023-05-07T04:01:04.924Z,5.47
2023-05-07T04:04:06.454Z,4.95
2023-05-07T04:07:08.375Z,6.18
2023-05-07T04:10:10.049Z,5.20
2023-05-07T04:13:11.528Z,5.38
2023-05-07T04:16:12.901Z,7.22
2023-05-07T04:19:14.162Z,4.75
2023-05-07T04:22:15.565Z,5.05
2023-05-07T04:25:17.313Z,5.25
2023-05-07T04:28:18.833Z,6.68
2023-05-07T04:31:20.829Z,4.88
2023-05-07T04:34:22.345Z,5.90
2023-05-07T04:37:23.667Z,4.75
2023-05-07T04:40:24.992Z,4.40
2023-05-07T04:43:26.677Z,4.53
2023-05-07T04:46:28.237Z,4.15
2023-05-07T04:49:29.723Z,4.05
2023-05-07T04:52:31.013Z,5.40
2023-05-07T04:55:32.272Z,4.82
2023-05-07T04:58:33.590Z,5.32
2023-05-07T05:01:34.954Z,5.60
2023-05-07T05:04:36.302Z,5.22
2023-05-07T05:07:37.675Z,5.13
2023-05-07T05:10:39.149Z,5.00
2023-05-07T05:13:40.535Z,5.75
2023-05-07T05:16:41.884Z,4.80
2023-05-07T05:19:43.214Z,4.35
2023-05-07T05:22:44.724Z,5.55
2023-05-07T05:25:46.443Z,6.10
2023-05-07T05:28:47.883Z,4.97
2023-05-07T05:31:49.317Z,4.95
2023-05-07T05:34:50.616Z,4.88
2023-05-07T05:37:52.584Z,4.30
2023-05-07T05:40:56.659Z,6.22
2023-05-07T05:44:02.110Z,5.30
2023-05-07T05:47:03.995Z,4.90
2023-05-07T05:50:07.425Z,5.57
2023-05-07T05:53:08.812Z,5.68
2023-05-07T05:56:10.157Z,5.45
2023-05-07T05:59:12.132Z,5.78
2023-05-07T06:02:13.463Z,4.85
2023-05-07T06:05:14.870Z,5.63
2023-05-07T06:08:16.544Z,5.22
2023-05-07T06:11:17.871Z,5.13
2023-05-07T06:14:21.802Z,5.40
2023-05-07T06:17:23.199Z,5.45
2023-05-07T06:20:24.538Z,7.25
2023-05-07T06:23:25.808Z,4.80
2023-05-07T06:26:27.322Z,5.90
2023-05-07T06:29:32.428Z,5.00
2023-05-07T06:32:33.832Z,6.47
2023-05-07T06:35:35.316Z,5.25
2023-05-07T06:38:36.689Z,4.95
2023-05-07T06:41:38.198Z,5.90
2023-05-07T06:44:39.484Z,5.00
2023-05-07T06:47:40.983Z,5.93
2023-05-07T06:50:42.707Z,5.50
2023-05-07T06:53:43.993Z,5.00
2023-05-07T06:56:45.648Z,5.63
2023-05-07T06:59:46.980Z,5.20
2023-05-07T07:02:48.389Z,5.72
2023-05-07T07:05:52.508Z,4.72
2023-05-07T07:08:53.754Z,4.20
2023-05-07T07:11:55.524Z,5.20
2023-05-07T07:14:56.986Z,4.50
2023-05-07T07:17:58.310Z,4.32
2023-05-07T07:21:00.038Z,4.50
2023-05-07T07:24:03.955Z,4.63
2023-05-07T07:27:06.223Z,3.90
2023-05-07T07:30:10.035Z,4.15
2023-05-07T07:33:12.005Z,3.70
2023-05-07T07:36:13.396Z,5.82
2023-05-07T07:39:14.794Z,3.60
2023-05-07T07:42:16.109Z,3.03
2023-05-07T07:45:17.690Z,3.88
2023-05-07T07:48:18.949Z,4.30
2023-05-07T07:51:20.597Z,3.45
2023-05-07T07:54:21.931Z,3.80
2023-05-07T07:57:23.430Z,3.42
2023-05-07T08:00:24.812Z,3.25
2023-05-07T08:03:26.176Z,4.07
2023-05-07T08:06:27.926Z,4.40
2023-05-07T08:09:29.208Z,3.83
2023-05-07T08:12:30.535Z,4.00
2023-05-07T08:15:32.098Z,3.28
2023-05-07T08:18:33.402Z,5.38
2023-05-07T08:21:35.115Z,3.60
2023-05-07T08:24:36.710Z,3.60
2023-05-07T08:27:38.017Z,3.15
2023-05-07T08:30:39.464Z,4.20
2023-05-07T08:33:40.786Z,4.10
2023-05-07T08:36:42.866Z,4.07
2023-05-07T08:39:44.180Z,3.38
2023-05-07T08:42:47.073Z,3.92
2023-05-07T08:45:50.253Z,3.03
2023-05-07T08:48:52.518Z,3.22
2023-05-07T08:51:53.901Z,3.35
2023-05-07T08:54:55.346Z,3.65
2023-05-07T08:57:56.974Z,3.50
2023-05-07T09:00:59.007Z,2.72
2023-05-07T09:04:01.459Z,4.63
2023-05-07T09:07:06.265Z,3.30
2023-05-07T09:10:07.876Z,3.35
2023-05-07T09:13:10.169Z,3.42
2023-05-07T09:16:14.963Z,3.90
2023-05-07T09:19:16.420Z,3.42
2023-05-07T09:22:17.680Z,2.72
2023-05-07T09:25:28.440Z,4.32
2023-05-07T09:28:29.735Z,3.30
2023-05-07T09:31:31.016Z,3.67
2023-05-07T09:34:32.732Z,4.43
2023-05-07T09:37:34.122Z,2.60
2023-05-07T09:40:35.421Z,2.53
2023-05-07T09:43:37.591Z,7.05
2023-05-07T09:46:39.545Z,3.47
2023-05-07T09:49:43.169Z,4.20
2023-05-07T09:52:45.005Z,2.72
2023-05-07T09:55:47.031Z,2.50
2023-05-07T09:58:49.221Z,4.28
2023-05-07T10:01:52.138Z,3.10
2023-05-07T10:04:53.785Z,3.28
2023-05-07T10:07:55.317Z,2.78
2023-05-07T10:10:56.614Z,3.20
2023-05-07T10:13:58.042Z,2.90
2023-05-07T10:17:00.284Z,2.20
2023-05-07T10:20:03.809Z,3.17
2023-05-07T10:23:06.805Z,3.10
2023-05-07T10:26:08.925Z,2.75
2023-05-07T10:29:16.460Z,5.53
2023-05-07T10:32:30.672Z,3.00
2023-05-07T10:35:33.772Z,2.95
2023-05-07T10:38:35.120Z,2.30
2023-05-07T10:41:43.360Z,2.97
2023-05-07T10:44:44.824Z,2.85
2023-05-07T10:48:07.065Z,3.90
2023-05-07T10:51:20.064Z,3.22
2023-05-07T10:54:22.995Z,5.03
2023-05-07T10:57:33.671Z,2.65
2023-05-07T11:00:39.417Z,2.50
2023-05-07T11:03:59.506Z,3.10
2023-05-07T11:07:10.054Z,3.65
2023-05-07T11:10:11.468Z,2.72
2023-05-07T11:13:12.830Z,3.25
2023-05-07T11:16:21.278Z,3.80
2023-05-07T11:19:46.172Z,3.17
2023-05-07T11:22:49.966Z,2.10
2023-05-07T11:25:51.500Z,2.65
2023-05-07T11:28:53.200Z,2.75
2023-05-07T11:31:55.805Z,2.88
2023-05-07T11:38:01.617Z,2.45
2023-05-07T11:41:05.640Z,3.78
2023-05-07T11:44:07.002Z,2.17
2023-05-07T11:47:08.368Z,3.45
2023-05-07T11:50:11.351Z,2.80
2023-05-07T11:53:13.946Z,1.98
2023-05-07T11:56:16.691Z,2.67
2023-05-07T11:59:18.417Z,3.10
2023-05-07T12:02:19.806Z,2.25
2023-05-07T12:05:21.226Z,3.58
2023-05-07T12:08:22.939Z,2.40
2023-05-07T12:11:25.016Z,2.45
2023-05-07T12:14:28.824Z,4.00
2023-05-07T12:17:30.352Z,2.35
2023-05-07T12:20:31.775Z,2.53
2023-05-07T12:23:34.012Z,2.30
2023-05-07T12:26:38.650Z,3.28
2023-05-07T12:29:41.804Z,5.38
2023-05-07T12:32:45.982Z,2.20
2023-05-07T12:35:48.249Z,2.00
2023-05-07T12:38:52.614Z,3.75
2023-05-07T12:41:57.736Z,5.22
2023-05-07T12:44:59.312Z,2.63
2023-05-07T12:48:02.531Z,4.28
2023-05-07T12:51:04.175Z,2.10
2023-05-07T12:54:05.852Z,14.00
2023-05-07T12:57:08.324Z,3.90
2023-05-07T13:00:10.986Z,3.70
2023-05-07T13:03:12.499Z,4.50
2023-05-07T13:06:14.058Z,4.78
2023-05-07T13:09:15.356Z,11.70
2023-05-07T13:12:16.649Z,2.70
2023-05-07T13:15:18.324Z,4.03
2023-05-07T13:18:19.756Z,4.50
2023-05-07T13:21:21.169Z,4.40
2023-05-07T13:24:22.423Z,6.97
2023-05-07T13:27:23.652Z,4.03
2023-05-07T13:30:25.138Z,2.90
2023-05-07T13:33:26.413Z,2.67
2023-05-07T13:36:27.826Z,3.72
2023-05-07T13:39:29.128Z,2.72
2023-05-07T13:42:30.577Z,3.25
2023-05-07T13:45:31.979Z,3.10
2023-05-07T13:48:33.532Z,3.08
2023-05-07T13:51:34.848Z,4.30
2023-05-07T13:54:36.129Z,4.07
2023-05-07T13:57:37.905Z,3.38
2023-05-07T14:00:39.352Z,3.95
2023-05-07T14:03:41.019Z,4.75
2023-05-07T14:06:42.438Z,4.38
2023-05-07T14:09:43.749Z,4.50
2023-05-07T14:12:45.712Z,4.65
2023-05-07T14:15:47.729Z,3.83
2023-05-07T14:18:49.063Z,4.70
2023-05-07T14:21:50.470Z,4.63
2023-05-07T14:25:03.248Z,4.22
2023-05-07T14:28:08.672Z,5.07
2023-05-07T14:31:10.843Z,4.32
2023-05-07T14:34:12.135Z,4.15
2023-05-07T14:37:13.646Z,5.45
2023-05-07T14:40:15.739Z,4.13
2023-05-07T14:43:17.107Z,4.70
2023-05-07T14:46:18.949Z,4.18
2023-05-07T14:49:21.013Z,4.40
2023-05-07T14:52:22.342Z,4.90
2023-05-07T14:55:23.584Z,5.00
2023-05-07T14:58:25.055Z,4.55
2023-05-07T15:01:26.556Z,3.35
2023-05-07T15:04:27.939Z,4.18
2023-05-07T15:07:29.207Z,3.58
2023-05-07T15:10:30.513Z,3.22
2023-05-07T15:13:31.999Z,3.42
2023-05-07T15:16:33.913Z,3.60
2023-05-07T15:19:35.228Z,5.05
2023-05-07T15:22:38.007Z,5.00
2023-05-07T15:25:39.344Z,6.10
2023-05-07T15:28:41.265Z,5.75
2023-05-07T15:31:42.801Z,5.95
2023-05-07T15:34:44.158Z,4.25
2023-05-07T15:37:45.485Z,4.22
2023-05-07T15:40:46.796Z,5.68
2023-05-07T15:43:50.081Z,4.68
2023-05-07T15:46:51.434Z,5.78
2023-05-07T15:49:52.927Z,7.07
2023-05-07T15:52:54.808Z,4.47
2023-05-07T15:55:56.069Z,4.05
2023-05-07T15:58:58.203Z,4.53
2023-05-07T16:01:59.967Z,6.82
2023-05-07T16:05:01.250Z,4.70
2023-05-07T16:08:02.566Z,5.75
2023-05-07T16:11:03.822Z,8.90
2023-05-07T16:14:05.290Z,8.35
2023-05-07T16:17:06.859Z,8.77
2023-05-07T16:20:09.102Z,4.95
2023-05-07T16:23:10.510Z,4.63
2023-05-07T16:26:13.605Z,5.53
2023-05-07T16:29:15.986Z,5.95
2023-05-07T16:32:17.294Z,5.13
2023-05-07T16:35:18.734Z,4.72
2023-05-07T16:38:20.297Z,5.40
2023-05-07T16:41:22.068Z,4.03
2023-05-07T16:44:23.445Z,8.02
2023-05-07T16:47:24.818Z,5.50
2023-05-07T16:50:26.421Z,7.03
2023-05-07T16:53:27.796Z,7.88
2023-05-07T16:56:29.438Z,4.78
2023-05-07T16:59:33.285Z,5.50
2023-05-07T17:02:37.502Z,4.90
2023-05-07T17:08:42.895Z,6.00
2023-05-07T17:11:44.565Z,4.60
2023-05-07T17:14:45.858Z,5.00
2023-05-07T17:17:47.259Z,6.13
2023-05-07T17:20:48.606Z,6.45
2023-05-07T17:23:49.902Z,4.90
2023-05-07T17:26:51.236Z,5.47
2023-05-07T17:29:52.627Z,7.25
2023-05-07T17:32:56.438Z,7.78
2023-05-07T17:36:02.873Z,6.65
2023-05-07T17:39:04.453Z,5.88
2023-05-07T17:42:05.798Z,6.47
2023-05-07T17:45:07.425Z,5.53
2023-05-07T17:48:08.753Z,5.22
2023-05-07T17:51:10.190Z,5.30
2023-05-07T17:54:11.628Z,6.07
2023-05-07T17:57:12.992Z,6.00
2023-05-07T18:00:14.782Z,6.57
2023-05-07T18:03:16.311Z,6.30
2023-05-07T18:06:22.616Z,6.32
2023-05-07T18:09:23.999Z,6.80
2023-05-07T18:12:27.439Z,6.53
2023-05-07T18:15:29.104Z,4.95
2023-05-07T18:18:31.746Z,4.32
2023-05-07T18:21:33.120Z,5.28
2023-05-07T18:24:34.433Z,4.43
2023-05-07T18:27:35.760Z,5.03
2023-05-07T18:30:37.083Z,4.82
2023-05-07T18:33:39.131Z,4.85
2023-05-07T18:36:40.605Z,7.43
2023-05-07T18:39:43.472Z,5.85
2023-05-07T18:42:44.827Z,4.60
2023-05-07T18:45:49.573Z,5.05
2023-05-07T18:48:50.975Z,6.53
2023-05-07T18:51:53.217Z,5.18
2023-05-07T18:54:54.562Z,7.03
2023-05-07T18:57:55.854Z,5.28
2023-05-07T19:00:57.354Z,6.95
2023-05-07T19:03:58.883Z,7.28
2023-05-07T19:07:00.252Z,6.75
2023-05-07T19:10:05.688Z,6.15
2023-05-07T19:13:07.610Z,7.90
2023-05-07T19:16:12.394Z,6.45
2023-05-07T19:19:13.780Z,6.22
2023-05-07T19:22:15.702Z,7.43
2023-05-07T19:25:18.196Z,6.20
2023-05-07T19:28:19.522Z,7.53
2023-05-07T19:31:21.563Z,8.00
2023-05-07T19:34:22.931Z,7.53
2023-05-07T19:37:25.537Z,7.50
2023-05-07T19:40:26.964Z,7.03
2023-05-07T19:43:28.269Z,7.35
2023-05-07T19:46:29.924Z,8.70
2023-05-07T19:49:31.540Z,7.80
2023-05-07T19:52:32.866Z,8.35
2023-05-07T19:55:34.309Z,8.05
2023-05-07T19:58:36.031Z,8.00
2023-05-07T20:01:39.050Z,9.57
2023-05-07T20:04:40.538Z,7.78
2023-05-07T20:07:42.127Z,8.10
2023-05-07T20:10:44.206Z,7.15
2023-05-07T20:13:45.544Z,8.75
2023-05-07T20:16:46.826Z,7.60
2023-05-07T20:19:48.121Z,8.18
2023-05-07T20:22:49.456Z,7.35
2023-05-07T20:25:50.886Z,8.55
2023-05-07T20:28:52.244Z,9.68
2023-05-07T20:31:53.706Z,10.13
2023-05-07T20:34:55.595Z,9.18
2023-05-07T20:37:56.922Z,10.73
2023-05-07T20:40:58.309Z,10.90
2023-05-07T20:44:00.425Z,11.18
2023-05-07T20:47:02.021Z,12.35
2023-05-07T20:50:03.416Z,10.80
2023-05-07T20:53:04.667Z,10.98
2023-05-07T20:56:05.973Z,10.63
2023-05-07T20:59:07.377Z,9.43
2023-05-07T21:02:08.894Z,10.93
2023-05-07T21:05:10.160Z,6.95
2023-05-07T21:08:11.533Z,6.07
2023-05-07T21:11:13.101Z,6.57
2023-05-07T21:14:14.403Z,5.25
2023-05-07T21:17:15.727Z,5.90
2023-05-07T21:20:17.056Z,4.45
2023-05-07T21:23:18.332Z,3.75
2023-05-07T21:26:20.053Z,4.50
2023-05-07T21:29:22.132Z,4.60
2023-05-07T21:32:23.708Z,3.58
2023-05-07T21:35:25.053Z,6.80
2023-05-07T21:38:26.377Z,4.15
2023-05-07T21:41:27.648Z,5.00
2023-05-07T21:44:29.732Z,5.75
2023-05-07T21:47:31.094Z,4.05
2023-05-07T21:50:33.110Z,4.43
2023-05-07T21:53:34.858Z,5.68
2023-05-07T21:56:36.172Z,4.13
2023-05-07T21:59:38.124Z,4.47
2023-05-07T22:02:39.748Z,4.40
2023-05-07T22:05:41.240Z,3.95
2023-05-07T22:08:42.558Z,4.43
2023-05-07T22:11:43.898Z,4.75
2023-05-07T22:14:45.242Z,4.30
2023-05-07T22:17:46.565Z,5.07
2023-05-07T22:20:50.497Z,4.32
2023-05-07T22:23:51.786Z,4.22
2023-05-07T22:26:53.150Z,4.30
2023-05-07T22:29:55.543Z,6.25
2023-05-07T22:32:56.847Z,6.60
2023-05-07T22:35:58.259Z,4.90
2023-05-07T22:38:59.518Z,4.60
2023-05-07T22:42:02.179Z,4.03
2023-05-07T22:45:03.570Z,5.32
2023-05-07T22:48:05.299Z,5.55
2023-05-07T22:51:06.662Z,4.60
2023-05-07T22:54:08.850Z,4.40
2023-05-07T22:57:10.168Z,4.65
2023-05-07T23:00:12.292Z,5.93
2023-05-07T23:03:13.989Z,4.97
2023-05-07T23:06:15.500Z,5.75
2023-05-07T23:09:16.984Z,6.07
2023-05-07T23:12:18.343Z,4.97
2023-05-07T23:15:20.066Z,5.53
2023-05-07T23:18:21.529Z,4.97
2023-05-07T23:21:22.790Z,5.05
2023-05-07T23:24:24.062Z,6.20
2023-05-07T23:27:25.364Z,5.28
2023-05-07T23:30:26.739Z,5.07
2023-05-07T23:33:28.021Z,4.88
2023-05-07T23:36:29.304Z,6.20
2023-05-07T23:39:30.545Z,5.22
2023-05-07T23:42:31.789Z,5.90
2023-05-07T23:45:33.027Z,6.45
2023-05-07T23:48:34.284Z,7.63
2023-05-07T23:51:35.597Z,6.30
2023-05-07T23:54:37.133Z,6.10
2023-05-07T23:57:38.409Z,6.65
